Time;durP1;ratioP1;P1;durP2;ratioP2;P2;SDS_P1;SDS_P2;PMS_P1;PMS_P2;Temp;Humidity;BMP_temperature;BMP_pressure;BME280_temperature;BME280_humidity;BME280_pressure;Samples;Min_cycle;Max_cycle;Signal;HPM_P1;HPM_P2
2023/07/02 00:02:05;;;;;;;0.05;0.05;;;;;;;24.93;50.91;100648.97;5053058;28;20048;-63
2023/07/02 00:04:31;;;;;;;0.03;0.03;;;;;;;25.23;49.90;100647.13;5070731;28;20039;-65
2023/07/02 00:06:56;;;;;;;0.08;0.08;;;;;;;24.91;50.22;100640.22;5070591;28;20016;-64
2023/07/02 00:09:22;;;;;;;0.10;0.10;;;;;;;24.81;50.19;100645.25;5071094;28;20027;-66
2023/07/02 00:11:47;;;;;;;0.10;0.10;;;;;;;24.54;51.26;100642.78;5066026;28;20044;-65
2023/07/02 00:14:13;;;;;;;0.10;0.10;;;;;;;25.53;48.52;100637.03;5073279;28;20036;-64
2023/07/02 00:16:42;;;;;;;0.10;0.10;;;;;;;24.64;49.93;100635.06;5070704;28;20037;-64
2023/07/02 00:19:07;;;;;;;0.00;0.00;;;;;;;25.16;49.16;100635.81;5070734;28;20093;-64
2023/07/02 00:21:33;;;;;;;0.10;0.10;;;;;;;25.23;48.43;100628.69;5071727;28;20044;-65
2023/07/02 00:23:59;;;;;;;0.10;0.10;;;;;;;25.02;49.15;100633.25;5071027;28;20060;-65
2023/07/02 00:26:25;;;;;;;0.00;0.00;;;;;;;25.11;48.62;100638.75;5071057;28;20033;-65
2023/07/02 00:28:51;;;;;;;0.10;0.10;;;;;;;25.01;48.62;100641.84;5071273;28;20032;-64
2023/07/02 00:31:17;;;;;;;0.10;0.10;;;;;;;25.42;47.17;100650.34;5071260;28;20119;-65
2023/07/02 00:33:42;;;;;;;0.10;0.10;;;;;;;25.65;46.67;100646.22;5071499;28;20016;-63
2023/07/02 00:36:12;;;;;;;0.00;0.00;;;;;;;24.65;47.44;100642.16;5052714;28;20028;-64
2023/07/02 00:38:38;;;;;;;;;;;;;;;25.13;46.10;100648.28;5070382;28;20033;-64
2023/07/02 00:41:03;;;;;;;0.00;0.00;;;;;;;24.92;46.18;100646.56;5076520;28;19973;-63
2023/07/02 00:43:29;;;;;;;0.10;0.10;;;;;;;25.27;45.08;100640.66;5081131;28;20823;-64
2023/07/02 00:45:55;;;;;;;0.10;0.10;;;;;;;25.07;45.35;100638.59;5070291;28;20041;-64
2023/07/02 00:48:21;;;;;;;0.00;0.00;;;;;;;25.07;44.76;100635.03;5070696;28;20021;-64
2023/07/02 00:50:46;;;;;;;0.10;0.10;;;;;;;24.96;45.36;100631.81;5070696;28;20090;-63
2023/07/02 00:53:12;;;;;;;0.10;0.10;;;;;;;25.43;43.81;100635.47;5070761;28;20508;-64
2023/07/02 00:55:38;;;;;;;0.10;0.10;;;;;;;25.30;43.95;100632.88;5070554;28;20029;-64
2023/07/02 00:58:03;;;;;;;0.10;0.10;;;;;;;25.28;44.11;100623.00;5070536;28;20031;-64
2023/07/02 01:00:29;;;;;;;0.10;0.10;;;;;;;25.17;43.86;100627.25;5070624;28;20036;-64
2023/07/02 01:02:58;;;;;;;0.10;0.10;;;;;;;24.72;44.61;100630.69;5070220;28;20051;-64
2023/07/02 01:05:26;;;;;;;0.03;0.03;;;;;;;24.94;43.91;100627.78;5070576;28;20041;-64
2023/07/02 01:07:51;;;;;;;0.10;0.10;;;;;;;24.78;44.20;100629.41;5048865;28;20033;-63
2023/07/02 01:10:17;;;;;;;0.10;0.10;;;;;;;25.10;43.67;100632.44;5056203;28;20039;-63
2023/07/02 01:12:44;;;;;;;0.10;0.10;;;;;;;25.00;43.62;100641.03;5087785;28;20025;-66
2023/07/02 01:15:10;;;;;;;0.00;0.00;;;;;;;24.74;44.26;100640.25;5070127;28;20021;-63
2023/07/02 01:17:41;;;;;;;0.10;0.10;;;;;;;25.20;44.10;100645.84;5070283;28;20119;-64
2023/07/02 01:20:09;;;;;;;0.10;0.10;;;;;;;24.83;44.45;100645.72;5070468;28;20047;-63
2023/07/02 01:22:35;;;;;;;0.10;0.10;;;;;;;24.76;44.52;100648.16;5070801;28;20072;-64
2023/07/02 01:25:00;;;;;;;0.00;0.00;;;;;;;25.44;43.88;100655.50;5070402;28;20456;-65
2023/07/02 01:27:29;;;;;;;0.10;0.10;;;;;;;25.78;43.48;100650.72;5070795;28;20033;-66
2023/07/02 01:29:55;;;;;;;0.00;0.00;;;;;;;25.63;44.00;100640.22;5069924;28;20033;-63
2023/07/02 01:32:21;;;;;;;0.10;0.10;;;;;;;25.82;43.76;100643.41;5071987;28;20042;-65
2023/07/02 01:34:52;;;;;;;0.10;0.10;;;;;;;25.46;44.68;100650.50;5073154;28;20036;-64
2023/07/02 01:37:18;;;;;;;0.03;0.03;;;;;;;24.55;46.81;100650.72;5062313;28;20111;-64
2023/07/02 01:39:43;;;;;;;0.10;0.10;;;;;;;24.76;47.46;100646.25;5083464;28;20551;-66
2023/07/02 01:42:11;;;;;;;0.10;0.10;;;;;;;25.01;46.38;100652.84;5078884;28;20131;-68
2023/07/02 01:44:37;;;;;;;0.05;0.05;;;;;;;24.31;47.33;100656.66;5075129;28;20082;-64
2023/07/02 01:47:03;;;;;;;0.10;0.10;;;;;;;24.13;46.75;100666.03;5073844;28;20060;-64
2023/07/02 01:49:29;;;;;;;0.10;0.10;;;;;;;23.92;46.04;100662.19;5073558;28;20439;-62
2023/07/02 01:51:55;;;;;;;0.10;0.10;;;;;;;24.69;44.26;100661.53;5055475;28;20025;-64
2023/07/02 01:54:24;;;;;;;0.10;0.10;;;;;;;24.15;44.73;100657.47;5074201;28;20016;-64
2023/07/02 01:56:49;;;;;;;0.10;0.10;;;;;;;24.59;43.76;100667.38;5073904;28;20037;-63
2023/07/02 01:59:15;;;;;;;0.00;0.00;;;;;;;23.71;45.25;100666.63;5073673;28;20027;-65
2023/07/02 02:01:41;;;;;;;0.10;0.10;;;;;;;23.98;44.15;100657.38;5055534;28;20036;-64
2023/07/02 02:04:07;;;;;;;0.10;0.10;;;;;;;23.89;43.92;100662.84;5073968;28;20028;-64
2023/07/02 02:06:32;;;;;;;0.13;0.13;;;;;;;23.68;44.62;100669.22;5074122;28;20099;-64
2023/07/02 02:08:58;;;;;;;0.10;0.10;;;;;;;23.26;45.22;100663.16;5073788;28;20039;-64
2023/07/02 02:11:23;;;;;;;0.10;0.10;;;;;;;23.24;45.02;100659.09;5078337;28;20071;-64
2023/07/02 02:13:49;;;;;;;0.10;0.10;;;;;;;23.50;44.51;100666.41;5073505;28;20656;-65
2023/07/02 02:16:14;;;;;;;0.10;0.10;;;;;;;22.57;46.17;100661.81;5055702;28;20094;-64
2023/07/02 02:18:40;;;;;;;0.10;0.10;;;;;;;22.59;46.88;100661.50;5073717;28;20046;-64
2023/07/02 02:21:05;;;;;;;0.10;0.10;;;;;;;22.86;46.43;100669.63;5073504;28;20040;-65
2023/07/02 02:23:30;;;;;;;0.10;0.10;;;;;;;22.89;45.33;100670.94;5073376;28;20040;-64
2023/07/02 02:25:56;;;;;;;0.10;0.10;;;;;;;23.05;45.27;100673.03;5073667;28;20560;-65
2023/07/02 02:28:21;;;;;;;0.10;0.10;;;;;;;23.26;44.88;100670.56;5073559;28;20033;-65
2023/07/02 02:30:46;;;;;;;0.10;0.10;;;;;;;22.94;45.39;100673.59;5073677;28;20016;-66
2023/07/02 02:33:12;;;;;;;0.10;0.10;;;;;;;23.37;44.40;100667.28;5070733;28;20412;-64
2023/07/02 02:35:37;;;;;;;0.10;0.10;;;;;;;22.60;46.47;100668.63;5064259;28;20056;-65
2023/07/02 02:38:04;;;;;;;0.17;0.17;;;;;;;23.40;44.38;100669.41;5073392;28;20036;-64
2023/07/02 02:40:30;;;;;;;0.10;0.10;;;;;;;23.43;44.15;100663.28;5072892;28;20040;-63
2023/07/02 02:42:55;;;;;;;0.10;0.10;;;;;;;23.68;43.44;100672.78;5079120;28;20039;-65
2023/07/02 02:45:20;;;;;;;0.10;0.10;;;;;;;22.76;45.70;100667.13;5073901;28;20037;-64
2023/07/02 02:47:46;;;;;;;0.10;0.10;;;;;;;22.95;45.37;100681.50;5073075;28;20400;-65
2023/07/02 02:50:13;;;;;;;0.13;0.13;;;;;;;22.43;46.26;100682.09;5055263;28;20119;-64
2023/07/02 02:52:38;;;;;;;0.10;0.10;;;;;;;22.74;46.13;100680.34;5072938;28;20109;-63
2023/07/02 02:55:06;;;;;;;0.10;0.10;;;;;;;22.95;45.52;100689.72;5073013;28;20017;-64
2023/07/02 02:57:31;;;;;;;0.10;0.10;;;;;;;23.03;45.02;100680.75;5073531;28;20534;-63
2023/07/02 02:59:56;;;;;;;0.10;0.10;;;;;;;22.40;46.73;100683.56;5072795;28;20033;-63
2023/07/02 03:02:22;;;;;;;0.10;0.10;;;;;;;22.35;46.75;100688.31;5072864;28;20381;-64
2023/07/02 03:04:49;;;;;;;0.10;0.10;;;;;;;23.01;45.36;100688.47;5073005;28;20098;-64
2023/07/02 03:07:14;;;;;;;0.20;0.20;;;;;;;22.79;45.52;100687.63;5073033;28;20032;-64
2023/07/02 03:09:40;;;;;;;0.20;0.20;;;;;;;22.56;45.92;100684.81;5073313;28;20456;-64
2023/07/02 03:12:06;;;;;;;0.10;0.10;;;;;;;22.95;45.53;100681.50;5074279;28;20782;-64
2023/07/02 03:14:31;;;;;;;0.10;0.10;;;;;;;22.88;45.54;100686.56;5072424;28;20052;-65
2023/07/02 03:16:56;;;;;;;0.10;0.10;;;;;;;22.70;45.12;100690.31;5054343;28;20472;-64
2023/07/02 03:19:22;;;;;;;0.10;0.10;;;;;;;22.57;46.17;100688.41;5072174;28;20043;-64
2023/07/02 03:21:47;;;;;;;0.20;0.20;;;;;;;23.01;44.84;100696.69;5072511;28;20492;-68
2023/07/02 03:24:13;;;;;;;0.13;0.13;;;;;;;22.45;46.23;100699.03;5072341;28;20074;-65
2023/07/02 03:26:41;;;;;;;0.10;0.10;;;;;;;22.60;45.85;100696.03;5072019;28;20036;-66
2023/07/02 03:29:07;;;;;;;0.10;0.10;;;;;;;22.67;45.91;100699.13;5072261;28;20040;-65
2023/07/02 03:31:32;;;;;;;0.10;0.10;;;;;;;22.99;44.69;100698.94;5081775;28;20097;-64
2023/07/02 03:33:57;;;;;;;0.20;0.20;;;;;;;22.45;47.05;100699.88;5053896;28;20032;-64
2023/07/02 03:36:23;;;;;;;0.10;0.10;;;;;;;22.66;46.57;100705.75;5072541;28;20044;-67
2023/07/02 03:38:48;;;;;;;0.20;0.20;;;;;;;22.36;47.09;100704.44;5072200;28;20071;-64
2023/07/02 03:41:14;;;;;;;0.10;0.10;;;;;;;22.21;48.11;100701.22;5071989;28;20020;-65
2023/07/02 03:43:39;;;;;;;0.10;0.10;;;;;;;22.17;47.81;100701.00;5060321;28;20056;-68
2023/07/02 03:46:04;;;;;;;0.10;0.10;;;;;;;22.27;47.89;100694.53;5072026;28;20768;-67
2023/07/02 03:48:30;;;;;;;0.10;0.10;;;;;;;22.75;46.61;100698.41;5072231;28;20048;-68
2023/07/02 03:50:55;;;;;;;0.10;0.10;;;;;;;22.63;47.04;100698.13;5071751;28;20048;-68
2023/07/02 03:53:20;;;;;;;0.20;0.20;;;;;;;22.50;46.82;100704.44;5071851;28;20044;-67
2023/07/02 03:55:46;;;;;;;0.10;0.10;;;;;;;22.20;47.78;100713.28;5070683;28;20043;-68
2023/07/02 03:58:11;;;;;;;0.10;0.10;;;;;;;22.36;47.74;100704.44;5071346;28;20028;-68
2023/07/02 04:00:37;;;;;;;0.20;0.20;;;;;;;21.83;49.04;100722.50;5071803;28;20059;-67
2023/07/02 04:03:03;;;;;;;0.20;0.20;;;;;;;21.65;50.27;100728.81;5067993;28;20733;-70
2023/07/02 04:05:28;;;;;;;0.20;0.20;;;;;;;21.63;49.81;100729.13;5066996;28;20041;-68
2023/07/02 04:07:54;;;;;;;0.20;0.20;;;;;;;20.87;52.10;100734.97;5063493;28;20040;-67
2023/07/02 04:10:19;;;;;;;0.10;0.10;;;;;;;21.27;51.54;100736.31;5071374;28;20118;-67
2023/07/02 04:12:45;;;;;;;0.10;0.10;;;;;;;21.89;49.44;100734.97;5071324;28;20032;-71
2023/07/02 04:15:10;;;;;;;0.20;0.20;;;;;;;21.07;51.71;100731.16;5071116;28;20036;-68
2023/07/02 04:17:35;;;;;;;0.10;0.10;;;;;;;22.04;49.33;100736.59;5071167;28;20040;-66
2023/07/02 04:20:03;;;;;;;0.10;0.10;;;;;;;21.48;50.84;100734.84;5071176;28;20047;-68
2023/07/02 04:22:29;;;;;;;0.10;0.10;;;;;;;21.81;50.25;100735.69;5070960;28;20032;-68
2023/07/02 04:24:55;;;;;;;0.20;0.20;;;;;;;21.67;50.34;100738.34;5036341;28;20186;-69
2023/07/02 04:27:21;;;;;;;0.10;0.10;;;;;;;21.97;49.40;100731.53;5088131;28;20630;-67
2023/07/02 04:29:46;;;;;;;0.10;0.10;;;;;;;21.31;51.47;100739.25;5079788;28;20040;-67
2023/07/02 04:32:12;;;;;;;0.10;0.10;;;;;;;21.66;50.97;100733.97;5052497;28;20040;-68
2023/07/02 04:34:38;;;;;;;0.10;0.10;;;;;;;21.89;50.09;100745.91;5066273;28;20033;-67
2023/07/02 04:37:04;;;;;;;0.10;0.10;;;;;;;22.08;49.64;100737.59;5070138;28;20469;-67
2023/07/02 04:39:30;;;;;;;0.15;0.15;;;;;;;21.06;52.03;100739.66;5070338;28;20534;-68
2023/07/02 04:41:55;;;;;;;0.10;0.10;;;;;;;21.30;52.41;100743.94;5065734;28;20033;-67
2023/07/02 04:44:22;;;;;;;0.15;0.15;;;;;;;20.96;53.28;100746.06;5068108;28;20041;-70
2023/07/02 04:46:48;;;;;;;0.20;0.20;;;;;;;21.09;52.64;100744.53;5069828;28;20678;-70
2023/07/02 04:49:14;;;;;;;0.13;0.13;;;;;;;20.86;52.88;100752.50;5052566;28;20097;-67
2023/07/02 04:51:40;;;;;;;0.20;0.20;;;;;;;20.82;53.72;100751.44;5070700;28;20495;-68
2023/07/02 04:54:05;;;;;;;0.10;0.10;;;;;;;21.01;53.60;100746.03;5070241;28;20040;-68
2023/07/02 04:56:30;;;;;;;0.20;0.20;;;;;;;21.86;51.27;100748.47;5070326;28;20028;-67
2023/07/02 04:58:56;;;;;;;0.10;0.10;;;;;;;21.62;51.96;100756.78;5051863;28;20035;-67
2023/07/02 05:01:21;;;;;;;0.20;0.20;;;;;;;21.34;52.94;100760.53;5069611;28;20024;-68
2023/07/02 05:03:47;;;;;;;0.10;0.10;;;;;;;21.47;52.76;100759.75;5070515;28;20078;-68
2023/07/02 05:06:12;;;;;;;0.20;0.20;;;;;;;21.66;51.62;100763.28;5069651;28;20059;-66
2023/07/02 05:08:37;;;;;;;0.10;0.10;;;;;;;21.25;53.14;100763.13;5068660;28;20028;-67
2023/07/02 05:11:03;;;;;;;0.10;0.10;;;;;;;20.91;54.20;100759.81;5077726;28;20380;-68
2023/07/02 05:13:28;;;;;;;0.10;0.10;;;;;;;21.59;53.02;100762.84;5091007;28;20041;-70
2023/07/02 05:15:54;;;;;;;0.10;0.10;;;;;;;22.11;51.33;100767.13;5082913;28;20473;-68
2023/07/02 05:18:19;;;;;;;0.10;0.10;;;;;;;21.55;52.69;100764.56;5070614;28;20036;-67
2023/07/02 05:20:44;;;;;;;0.10;0.10;;;;;;;21.44;53.42;100763.94;5068125;28;20067;-68
2023/07/02 05:23:10;;;;;;;0.10;0.10;;;;;;;21.39;53.57;100774.13;5082942;28;20089;-67
2023/07/02 05:25:35;;;;;;;0.10;0.10;;;;;;;22.26;51.26;100769.56;5070873;28;20036;-69
2023/07/02 05:28:02;;;;;;;0.20;0.20;;;;;;;21.71;52.55;100764.00;5070230;28;20745;-67
2023/07/02 05:30:27;;;;;;;0.10;0.10;;;;;;;21.66;53.80;100771.50;5070344;28;20582;-67
2023/07/02 05:32:53;;;;;;;0.00;0.00;;;;;;;20.96;54.77;100768.75;5069590;28;20040;-67
2023/07/02 05:35:18;;;;;;;0.08;0.08;;;;;;;21.84;51.59;100767.88;5070360;28;20036;-70
2023/07/02 05:37:45;;;;;;;0.10;0.10;;;;;;;21.96;51.70;100764.66;5070849;28;20505;-67
2023/07/02 05:40:11;;;;;;;0.17;0.17;;;;;;;22.10;51.86;100770.97;5070006;28;20036;-67
2023/07/02 05:42:37;;;;;;;0.10;0.10;;;;;;;22.69;49.89;100765.38;5070851;28;20032;-68
2023/07/02 05:45:03;;;;;;;0.10;0.10;;;;;;;23.86;47.32;100778.75;5070791;28;20513;-67
2023/07/02 05:47:28;;;;;;;0.10;0.10;;;;;;;22.91;50.20;100772.84;5070355;28;20041;-68
2023/07/02 05:49:54;;;;;;;0.10;0.10;;;;;;;23.32;48.77;100784.53;5070918;28;20098;-67
2023/07/02 05:52:19;;;;;;;0.03;0.03;;;;;;;23.13;48.83;100779.19;5070518;28;20033;-68
2023/07/02 05:54:44;;;;;;;0.10;0.10;;;;;;;22.75;49.76;100785.25;5070948;28;20031;-66
2023/07/02 05:57:10;;;;;;;0.00;0.00;;;;;;;21.93;52.28;100781.69;5069963;28;20025;-67
2023/07/02 05:59:37;;;;;;;0.10;0.10;;;;;;;21.93;52.26;100787.16;5070120;28;20044;-67
2023/07/02 06:02:03;;;;;;;0.10;0.10;;;;;;;22.57;50.72;100781.53;5070204;28;20132;-68
2023/07/02 06:04:28;;;;;;;0.10;0.10;;;;;;;22.61;50.61;100786.09;5051578;28;20123;-67
2023/07/02 06:06:54;;;;;;;0.10;0.10;;;;;;;22.49;51.66;100790.44;5070313;28;20032;-70
2023/07/02 06:09:19;;;;;;;0.15;0.15;;;;;;;23.70;48.37;100787.69;5070656;28;20020;-69
2023/07/02 06:11:44;;;;;;;0.03;0.03;;;;;;;23.40;49.58;100792.84;5070348;28;20033;-67
2023/07/02 06:14:10;;;;;;;0.10;0.10;;;;;;;23.64;49.28;100799.94;5070676;28;20032;-68
2023/07/02 06:16:35;;;;;;;0.10;0.10;;;;;;;23.43;48.94;100803.16;5070122;28;20029;-67
2023/07/02 06:19:00;;;;;;;0.10;0.10;;;;;;;23.64;49.24;100808.16;5072602;28;20032;-68
2023/07/02 06:21:29;;;;;;;0.10;0.10;;;;;;;22.54;51.47;100810.31;5074334;28;20074;-70
2023/07/02 06:23:55;;;;;;;0.10;0.10;;;;;;;21.77;53.65;100808.47;5073721;28;20036;-70
2023/07/02 06:26:20;;;;;;;0.10;0.10;;;;;;;23.50;49.07;100798.06;5074059;28;20086;-70
2023/07/02 06:28:45;;;;;;;0.10;0.10;;;;;;;23.94;47.84;100810.13;5073942;28;20040;-67
2023/07/02 06:31:12;;;;;;;0.10;0.10;;;;;;;23.29;50.32;100807.06;5074062;28;20036;-67
2023/07/02 06:33:40;;;;;;;0.10;0.10;;;;;;;23.61;49.62;100806.03;5074053;28;20077;-67
2023/07/02 06:36:05;;;;;;;0.10;0.10;;;;;;;23.20;50.10;100809.72;5073607;28;20032;-67
2023/07/02 06:38:31;;;;;;;0.10;0.10;;;;;;;23.51;49.73;100812.56;5073698;28;20025;-71
2023/07/02 06:40:56;;;;;;;0.10;0.10;;;;;;;23.40;48.32;100792.84;5073213;28;20416;-68
2023/07/02 06:43:22;;;;;;;0.10;0.10;;;;;;;22.84;50.31;100795.19;5073495;28;20040;-68
2023/07/02 06:45:47;;;;;;;0.10;0.10;;;;;;;22.54;51.91;100809.53;5073269;28;20051;-66
2023/07/02 06:48:16;;;;;;;0.10;0.10;;;;;;;22.67;50.56;100816.94;5088350;28;20040;-66
2023/07/02 06:50:44;;;;;;;0.10;0.10;;;;;;;22.36;50.97;100835.91;5073397;28;20033;-66
2023/07/02 06:53:10;;;;;;;0.10;0.10;;;;;;;23.07;49.90;100828.97;5073390;28;20049;-68
2023/07/02 06:55:35;;;;;;;0.10;0.10;;;;;;;24.37;46.64;100831.19;5072962;28;20067;-67
2023/07/02 06:58:00;;;;;;;0.10;0.10;;;;;;;24.29;47.15;100828.44;5072703;28;20031;-67
2023/07/02 07:00:26;;;;;;;0.10;0.10;;;;;;;23.46;48.51;100829.16;5073493;28;20472;-69
2023/07/02 07:02:51;;;;;;;0.10;0.10;;;;;;;23.03;49.43;100838.91;5072609;28;20025;-67
2023/07/02 07:05:17;;;;;;;0.10;0.10;;;;;;;23.09;48.57;100840.44;5072876;28;20408;-67
2023/07/02 07:07:42;;;;;;;0.00;0.00;;;;;;;23.09;48.55;100835.75;5073039;28;20051;-67
2023/07/02 07:10:08;;;;;;;0.10;0.10;;;;;;;22.99;48.72;100837.91;5074778;28;20480;-70
2023/07/02 07:12:33;;;;;;;0.10;0.10;;;;;;;23.68;47.44;100858.53;5093335;28;20018;-69
2023/07/02 07:14:58;;;;;;;0.10;0.10;;;;;;;23.47;46.76;100845.31;5081941;28;20102;-67
2023/07/02 07:17:24;;;;;;;0.10;0.10;;;;;;;23.54;46.18;100853.13;5072827;28;20052;-69
2023/07/02 07:19:49;;;;;;;0.10;0.10;;;;;;;23.08;45.56;100852.50;5072404;28;20045;-67
2023/07/02 07:22:15;;;;;;;0.10;0.10;;;;;;;23.22;45.81;100862.31;5072716;28;20029;-68
2023/07/02 07:24:41;;;;;;;0.00;0.00;;;;;;;23.78;44.19;100852.81;5072475;28;20045;-67
2023/07/02 07:27:06;;;;;;;0.10;0.10;;;;;;;24.06;42.90;100859.78;5072586;28;20116;-67
2023/07/02 07:29:32;;;;;;;0.00;0.00;;;;;;;23.98;43.45;100864.06;5072381;28;20035;-71
2023/07/02 07:31:57;;;;;;;0.00;0.00;;;;;;;23.11;45.40;100873.84;5072205;28;20499;-68
2023/07/02 07:34:23;;;;;;;0.00;0.00;;;;;;;24.10;42.84;100875.34;5072238;28;20086;-69
2023/07/02 07:36:48;;;;;;;0.10;0.10;;;;;;;23.74;44.75;100891.06;5072483;28;20029;-69
2023/07/02 07:39:13;;;;;;;0.10;0.10;;;;;;;24.89;42.68;100878.13;5072797;28;20742;-67
2023/07/02 07:41:39;;;;;;;0.00;0.00;;;;;;;24.05;44.00;100875.47;5072501;28;20135;-68
2023/07/02 07:44:04;;;;;;;0.00;0.00;;;;;;;23.99;44.54;100876.69;5071877;28;20036;-67
2023/07/02 07:46:29;;;;;;;0.00;0.00;;;;;;;23.27;45.90;100878.66;5072208;28;20052;-67
2023/07/02 07:48:55;;;;;;;0.00;0.00;;;;;;;23.66;45.87;100882.75;5071714;28;20025;-67
2023/07/02 07:51:20;;;;;;;0.00;0.00;;;;;;;24.09;44.37;100887.44;5072611;28;20024;-69
2023/07/02 07:53:46;;;;;;;0.00;0.00;;;;;;;24.37;43.92;100885.34;5071547;28;20035;-66
2023/07/02 07:56:11;;;;;;;0.10;0.10;;;;;;;24.85;42.70;100888.97;5072760;28;20037;-66
2023/07/02 07:58:37;;;;;;;0.10;0.10;;;;;;;24.36;44.29;100889.22;5092119;28;20427;-68
2023/07/02 08:01:02;;;;;;;0.00;0.00;;;;;;;24.69;42.57;100882.25;5091752;28;20069;-67
2023/07/02 08:03:27;;;;;;;0.10;0.10;;;;;;;23.54;44.01;100894.28;5092041;28;20039;-68
2023/07/02 08:05:53;;;;;;;0.08;0.08;;;;;;;23.79;43.26;100890.09;5091668;28;20043;-67
2023/07/02 08:08:18;;;;;;;0.00;0.00;;;;;;;23.96;42.02;100887.50;5091575;28;20087;-67
2023/07/02 08:10:45;;;;;;;0.10;0.10;;;;;;;23.88;42.76;100885.50;5088323;28;20036;-68
2023/07/02 08:13:10;;;;;;;0.00;0.00;;;;;;;24.12;41.69;100900.53;5091564;28;20409;-68
2023/07/02 08:15:37;;;;;;;0.08;0.08;;;;;;;24.71;38.93;100892.91;5075829;28;20029;-68
2023/07/02 08:18:03;;;;;;;0.00;0.00;;;;;;;24.47;40.97;100898.00;5070948;28;20059;-68
2023/07/02 08:20:29;;;;;;;0.00;0.00;;;;;;;23.51;42.57;100895.69;5071074;28;20040;-68
2023/07/02 08:22:54;;;;;;;0.00;0.00;;;;;;;23.76;41.65;100901.72;5070839;28;20040;-66
2023/07/02 08:25:21;;;;;;;0.00;0.00;;;;;;;25.51;37.71;100892.50;5070962;28;20045;-68
2023/07/02 08:27:48;;;;;;;0.00;0.00;;;;;;;24.68;38.83;100905.38;5071072;28;20079;-66
2023/07/02 08:30:13;;;;;;;0.10;0.10;;;;;;;24.93;37.66;100903.84;5071288;28;20043;-68
2023/07/02 08:32:39;;;;;;;0.00;0.00;;;;;;;24.67;37.82;100905.69;5070939;28;20032;-66
2023/07/02 08:35:04;;;;;;;0.00;0.00;;;;;;;24.56;38.00;100896.91;5070992;28;20678;-66
2023/07/02 08:37:29;;;;;;;0.00;0.00;;;;;;;24.30;37.82;100909.69;5071160;28;20041;-65
2023/07/02 08:39:55;;;;;;;0.00;0.00;;;;;;;24.67;37.43;100908.44;5070272;28;20029;-66
2023/07/02 08:42:20;;;;;;;0.00;0.00;;;;;;;24.33;35.50;100909.09;5071165;28;20366;-66
2023/07/02 08:44:47;;;;;;;0.10;0.10;;;;;;;23.77;36.25;100925.28;5070552;28;20031;-65
2023/07/02 08:47:12;;;;;;;0.00;0.00;;;;;;;23.92;37.10;100911.22;5070774;28;20534;-70
2023/07/02 08:49:38;;;;;;;0.05;0.05;;;;;;;23.98;38.67;100916.25;5070672;28;20033;-70
2023/07/02 08:52:04;;;;;;;0.10;0.10;;;;;;;24.96;36.65;100925.22;5068967;28;20445;-66
2023/07/02 08:54:29;;;;;;;0.00;0.00;;;;;;;24.55;36.65;100924.72;5051000;28;20033;-68
2023/07/02 08:56:54;;;;;;;0.00;0.00;;;;;;;23.98;37.73;100931.94;5050702;28;20036;-68
2023/07/02 08:59:20;;;;;;;0.00;0.00;;;;;;;24.00;37.16;100940.66;5050774;28;20052;-67
2023/07/02 09:01:47;;;;;;;0.00;0.00;;;;;;;24.00;38.19;100933.22;5050920;28;20041;-67
2023/07/02 09:04:19;;;;;;;0.00;0.00;;;;;;;24.50;36.76;100933.88;5050415;28;20035;-66
2023/07/02 09:06:45;;;;;;;0.00;0.00;;;;;;;25.13;37.08;100931.59;5051673;28;20037;-66
2023/07/02 09:09:11;;;;;;;0.00;0.00;;;;;;;25.21;35.74;100924.47;5070771;28;20469;-68
2023/07/02 09:11:47;;;;;;;0.00;0.00;;;;;;;25.13;35.25;100936.28;5082546;28;20040;-67
2023/07/02 09:14:27;;;;;;;0.00;0.00;;;;;;;25.78;35.16;100938.97;5086462;28;20147;-67
2023/07/02 09:17:09;;;;;;;0.00;0.00;;;;;;;25.80;33.98;100945.78;5051957;28;20523;-68
2023/07/02 09:19:35;;;;;;;0.00;0.00;;;;;;;24.71;35.59;100951.44;5070280;28;20047;-70
2023/07/02 09:22:01;;;;;;;0.00;0.00;;;;;;;25.25;33.76;100953.78;5070645;28;20028;-66
2023/07/02 09:24:29;;;;;;;0.00;0.00;;;;;;;24.87;34.45;100955.44;5070899;28;20119;-68
2023/07/02 09:27:01;;;;;;;0.00;0.00;;;;;;;24.72;35.33;100953.13;5070531;28;20412;-68
2023/07/02 09:29:32;;;;;;;0.00;0.00;;;;;;;25.39;35.50;100942.66;5070672;28;20033;-65
2023/07/02 09:31:59;;;;;;;0.05;0.05;;;;;;;25.89;35.48;100948.53;5070388;28;20040;-69
2023/07/02 09:34:31;;;;;;;0.00;0.00;;;;;;;25.23;35.29;100958.81;5070040;28;20111;-67
2023/07/02 09:36:58;;;;;;;0.00;0.00;;;;;;;25.01;36.20;100930.56;5070393;28;20027;-68
2023/07/02 09:39:32;;;;;;;0.00;0.00;;;;;;;25.72;35.40;100934.78;5070962;28;20025;-67
2023/07/02 09:41:59;;;;;;;0.00;0.00;;;;;;;26.19;34.95;100936.53;5070349;28;20500;-67
2023/07/02 09:44:29;;;;;;;0.00;0.00;;;;;;;25.37;35.52;100944.09;5070114;28;20132;-67
2023/07/02 09:47:06;;;;;;;0.00;0.00;;;;;;;25.26;35.25;100947.16;5070064;28;20040;-67
2023/07/02 09:49:33;;;;;;;0.00;0.00;;;;;;;25.93;34.55;100944.00;5069792;28;20435;-68
2023/07/02 09:52:02;;;;;;;0.00;0.00;;;;;;;24.69;35.46;100945.47;5070187;28;20063;-68
2023/07/02 09:54:28;;;;;;;0.00;0.00;;;;;;;24.57;35.88;100947.97;5074352;28;20029;-70
2023/07/02 09:56:55;;;;;;;0.00;0.00;;;;;;;24.94;35.73;100944.78;5074276;28;20035;-68
2023/07/02 09:59:20;;;;;;;0.00;0.00;;;;;;;25.52;35.16;100958.22;5074034;28;20372;-70
2023/07/02 10:01:45;;;;;;;0.00;0.00;;;;;;;25.31;36.20;100948.94;5074093;28;20040;-68
2023/07/02 10:04:15;;;;;;;0.00;0.00;;;;;;;25.62;35.50;100966.19;5084311;28;20044;-71
2023/07/02 10:06:54;;;;;;;0.00;0.00;;;;;;;26.04;33.96;100978.34;5094586;28;20027;-68
2023/07/02 10:09:21;;;;;;;0.00;0.00;;;;;;;25.72;36.00;100960.38;5074001;28;20048;-66
2023/07/02 10:11:47;;;;;;;0.00;0.00;;;;;;;25.26;35.19;100955.41;5056544;28;20136;-68
2023/07/02 10:14:13;;;;;;;0.00;0.00;;;;;;;25.57;34.79;100965.53;5064998;28;20492;-69
2023/07/02 10:16:58;;;;;;;0.00;0.00;;;;;;;25.28;35.63;100966.91;5073635;28;20055;-70
2023/07/02 10:19:23;;;;;;;0.00;0.00;;;;;;;25.16;35.16;100968.63;5073031;28;20033;-68
2023/07/02 10:22:07;;;;;;;0.00;0.00;;;;;;;25.39;33.76;100977.59;5073109;28;20044;-69
2023/07/02 10:24:32;;;;;;;0.00;0.00;;;;;;;25.05;34.17;100967.31;5072953;28;20471;-67
2023/07/02 10:27:01;;;;;;;0.00;0.00;;;;;;;24.96;35.17;100969.22;5072483;28;20040;-67
2023/07/02 10:29:28;;;;;;;0.00;0.00;;;;;;;24.99;35.88;100968.56;5072425;28;20078;-68
2023/07/02 10:31:55;;;;;;;0.00;0.00;;;;;;;25.35;34.97;100979.38;5072319;28;20400;-68
2023/07/02 10:34:34;;;;;;;0.03;0.03;;;;;;;25.19;35.87;100977.06;5072556;28;20055;-68
2023/07/02 10:37:00;;;;;;;0.00;0.00;;;;;;;24.21;38.03;100983.81;5071819;28;20064;-69
2023/07/02 10:39:26;;;;;;;0.00;0.00;;;;;;;24.59;38.43;100978.69;5072438;28;20042;-68
2023/07/02 10:41:52;;;;;;;0.00;0.00;;;;;;;24.72;38.72;100986.09;5071470;28;20028;-67
2023/07/02 10:44:17;;;;;;;0.00;0.00;;;;;;;24.33;39.01;100986.00;5071363;28;20086;-70
2023/07/02 10:46:46;;;;;;;0.00;0.00;;;;;;;24.76;38.21;100978.84;5070813;28;20105;-68
2023/07/02 10:49:12;;;;;;;0.00;0.00;;;;;;;24.50;38.74;100988.03;5074817;28;20314;-70
2023/07/02 10:51:38;;;;;;;0.00;0.00;;;;;;;24.87;38.87;100988.44;5072184;28;20090;-69
2023/07/02 10:54:05;;;;;;;0.00;0.00;;;;;;;24.93;36.47;100994.59;5071498;28;20493;-67
2023/07/02 10:56:31;;;;;;;0.00;0.00;;;;;;;24.38;37.67;100985.84;5070751;28;20040;-69
2023/07/02 10:58:56;;;;;;;0.00;0.00;;;;;;;24.85;36.10;100985.19;5070683;28;20032;-70
2023/07/02 11:01:28;;;;;;;0.00;0.00;;;;;;;24.48;35.90;100995.78;5070691;28;20542;-68
2023/07/02 11:04:06;;;;;;;0.00;0.00;;;;;;;24.95;35.50;100992.34;5051797;28;20400;-67
2023/07/02 11:06:33;;;;;;;0.00;0.00;;;;;;;25.34;34.34;100983.25;5070869;28;20071;-68
2023/07/02 11:08:59;;;;;;;0.00;0.00;;;;;;;26.07;33.51;100981.28;5070184;28;20484;-67
2023/07/02 11:11:25;;;;;;;0.00;0.00;;;;;;;25.03;35.42;100984.13;5064281;28;20409;-66
2023/07/02 11:13:52;;;;;;;0.00;0.00;;;;;;;25.20;34.46;101000.69;5050098;28;20029;-66
2023/07/02 11:16:29;;;;;;;0.00;0.00;;;;;;;25.21;34.59;100998.75;5051297;28;20040;-67
2023/07/02 11:19:10;;;;;;;0.00;0.00;;;;;;;24.49;36.83;101006.44;5069695;28;20032;-68
2023/07/02 11:21:36;;;;;;;0.00;0.00;;;;;;;25.61;34.96;101000.31;5062221;28;20021;-66